sensor_id;sensor_type;location;lat;lon;timestamp;temperature;humidity
4107;DHT22;21906;50.812;7.132;2023-02-28T00:02:18;2.90;59.10
4107;DHT22;21906;50.812;7.132;2023-02-28T00:04:44;2.90;59.40
4107;DHT22;21906;50.812;7.132;2023-02-28T00:07:09;2.90;59.20
4107;DHT22;21906;50.812;7.132;2023-02-28T00:09:35;2.90;59.10
4107;DHT22;21906;50.812;7.132;2023-02-28T00:12:01;3.00;58.70
4107;DHT22;21906;50.812;7.132;2023-02-28T00:14:38;2.80;59.20
4107;DHT22;21906;50.812;7.132;2023-02-28T00:17:04;2.80;59.20
4107;DHT22;21906;50.812;7.132;2023-02-28T00:19:30;2.90;58.80
4107;DHT22;21906;50.812;7.132;2023-02-28T00:21:58;2.90;58.80
4107;DHT22;21906;50.812;7.132;2023-02-28T00:24:24;2.90;58.90
4107;DHT22;21906;50.812;7.132;2023-02-28T00:26:49;2.90;58.70
4107;DHT22;21906;50.812;7.132;2023-02-28T00:29:15;2.90;58.80
4107;DHT22;21906;50.812;7.132;2023-02-28T00:31:41;2.90;58.90
4107;DHT22;21906;50.812;7.132;2023-02-28T00:34:06;2.90;58.70
4107;DHT22;21906;50.812;7.132;2023-02-28T00:36:32;2.90;58.90
4107;DHT22;21906;50.812;7.132;2023-02-28T00:38:58;2.90;58.60
4107;DHT22;21906;50.812;7.132;2023-02-28T00:41:23;2.90;58.40
4107;DHT22;21906;50.812;7.132;2023-02-28T00:43:49;3.00;58.40
4107;DHT22;21906;50.812;7.132;2023-02-28T00:46:15;3.00;58.40
4107;DHT22;21906;50.812;7.132;2023-02-28T00:48:40;2.90;58.60
4107;DHT22;21906;50.812;7.132;2023-02-28T00:51:06;2.90;58.50
4107;DHT22;21906;50.812;7.132;2023-02-28T00:53:31;2.90;58.50
4107;DHT22;21906;50.812;7.132;2023-02-28T00:55:58;2.90;58.60
4107;DHT22;21906;50.812;7.132;2023-02-28T00:58:24;2.90;58.70
4107;DHT22;21906;50.812;7.132;2023-02-28T01:00:51;2.90;58.80
4107;DHT22;21906;50.812;7.132;2023-02-28T01:03:18;2.80;58.90
4107;DHT22;21906;50.812;7.132;2023-02-28T01:05:44;2.80;58.90
4107;DHT22;21906;50.812;7.132;2023-02-28T01:08:10;2.80;59.10
4107;DHT22;21906;50.812;7.132;2023-02-28T01:10:37;2.80;59.00
4107;DHT22;21906;50.812;7.132;2023-02-28T01:13:03;2.60;59.20
4107;DHT22;21906;50.812;7.132;2023-02-28T01:15:29;2.60;59.20
4107;DHT22;21906;50.812;7.132;2023-02-28T01:17:57;2.70;59.10
4107;DHT22;21906;50.812;7.132;2023-02-28T01:20:23;2.70;59.10
4107;DHT22;21906;50.812;7.132;2023-02-28T01:22:48;2.70;59.00
4107;DHT22;21906;50.812;7.132;2023-02-28T01:25:14;2.70;58.90
4107;DHT22;21906;50.812;7.132;2023-02-28T01:27:40;2.50;59.40
4107;DHT22;21906;50.812;7.132;2023-02-28T01:30:07;2.60;59.40
4107;DHT22;21906;50.812;7.132;2023-02-28T01:32:35;2.50;59.40
4107;DHT22;21906;50.812;7.132;2023-02-28T01:35:00;2.40;59.70
4107;DHT22;21906;50.812;7.132;2023-02-28T01:37:26;2.50;59.50
4107;DHT22;21906;50.812;7.132;2023-02-28T01:39:52;2.50;59.60
4107;DHT22;21906;50.812;7.132;2023-02-28T01:42:18;2.50;59.40
4107;DHT22;21906;50.812;7.132;2023-02-28T01:45:09;2.60;59.40
4107;DHT22;21906;50.812;7.132;2023-02-28T01:47:43;2.50;59.50
4107;DHT22;21906;50.812;7.132;2023-02-28T01:50:21;2.60;59.20
4107;DHT22;21906;50.812;7.132;2023-02-28T01:52:48;2.50;59.40
4107;DHT22;21906;50.812;7.132;2023-02-28T01:55:16;2.50;59.50
4107;DHT22;21906;50.812;7.132;2023-02-28T01:57:48;2.40;59.60
4107;DHT22;21906;50.812;7.132;2023-02-28T02:00:20;2.40;59.70
4107;DHT22;21906;50.812;7.132;2023-02-28T02:02:50;2.50;59.50
4107;DHT22;21906;50.812;7.132;2023-02-28T02:05:36;2.50;59.30
4107;DHT22;21906;50.812;7.132;2023-02-28T02:08:05;2.50;59.30
4107;DHT22;21906;50.812;7.132;2023-02-28T02:10:36;2.50;59.20
4107;DHT22;21906;50.812;7.132;2023-02-28T02:18:53;2.60;58.90
4107;DHT22;21906;50.812;7.132;2023-02-28T02:21:47;2.60;58.70
4107;DHT22;21906;50.812;7.132;2023-02-28T02:33:16;2.50;59.00
4107;DHT22;21906;50.812;7.132;2023-02-28T02:35:54;2.50;58.90
4107;DHT22;21906;50.812;7.132;2023-02-28T02:41:14;2.50;59.10
4107;DHT22;21906;50.812;7.132;2023-02-28T02:46:48;2.50;58.90
4107;DHT22;21906;50.812;7.132;2023-02-28T02:49:21;2.40;59.10
4107;DHT22;21906;50.812;7.132;2023-02-28T02:51:48;2.30;59.50
4107;DHT22;21906;50.812;7.132;2023-02-28T02:54:18;2.30;59.60
4107;DHT22;21906;50.812;7.132;2023-02-28T02:56:47;2.30;59.40
4107;DHT22;21906;50.812;7.132;2023-02-28T02:59:16;2.30;59.20
4107;DHT22;21906;50.812;7.132;2023-02-28T03:01:49;2.40;59.00
4107;DHT22;21906;50.812;7.132;2023-02-28T03:04:22;2.40;58.90
4107;DHT22;21906;50.812;7.132;2023-02-28T03:06:48;2.40;58.80
4107;DHT22;21906;50.812;7.132;2023-02-28T03:09:15;2.30;58.90
4107;DHT22;21906;50.812;7.132;2023-02-28T03:11:41;2.30;59.10
4107;DHT22;21906;50.812;7.132;2023-02-28T03:36:49;2.10;59.90
4107;DHT22;21906;50.812;7.132;2023-02-28T03:39:30;2.10;60.00
4107;DHT22;21906;50.812;7.132;2023-02-28T03:42:00;2.10;59.90
4107;DHT22;21906;50.812;7.132;2023-02-28T03:44:41;2.00;60.10
4107;DHT22;21906;50.812;7.132;2023-02-28T03:47:12;2.00;60.00
4107;DHT22;21906;50.812;7.132;2023-02-28T03:49:49;1.90;60.20
4107;DHT22;21906;50.812;7.132;2023-02-28T03:52:17;1.80;60.20
4107;DHT22;21906;50.812;7.132;2023-02-28T03:54:48;1.70;60.30
4107;DHT22;21906;50.812;7.132;2023-02-28T04:00:42;1.50;60.80
4107;DHT22;21906;50.812;7.132;2023-02-28T04:03:08;1.60;60.60
4107;DHT22;21906;50.812;7.132;2023-02-28T04:05:52;1.60;60.30
4107;DHT22;21906;50.812;7.132;2023-02-28T04:08:18;1.60;60.20
4107;DHT22;21906;50.812;7.132;2023-02-28T04:10:50;1.60;60.20
4107;DHT22;21906;50.812;7.132;2023-02-28T04:13:17;1.70;60.00
4107;DHT22;21906;50.812;7.132;2023-02-28T04:15:43;1.70;59.80
4107;DHT22;21906;50.812;7.132;2023-02-28T04:18:08;1.70;59.70
4107;DHT22;21906;50.812;7.132;2023-02-28T04:20:34;1.60;59.80
4107;DHT22;21906;50.812;7.132;2023-02-28T04:23:00;1.60;59.90
4107;DHT22;21906;50.812;7.132;2023-02-28T04:25:25;1.60;59.90
4107;DHT22;21906;50.812;7.132;2023-02-28T04:27:51;1.50;59.80
4107;DHT22;21906;50.812;7.132;2023-02-28T04:30:17;1.50;60.00
4107;DHT22;21906;50.812;7.132;2023-02-28T04:32:42;1.50;59.80
4107;DHT22;21906;50.812;7.132;2023-02-28T04:35:08;1.50;59.80
4107;DHT22;21906;50.812;7.132;2023-02-28T04:37:34;1.50;59.80
4107;DHT22;21906;50.812;7.132;2023-02-28T04:40:03;1.60;59.70
4107;DHT22;21906;50.812;7.132;2023-02-28T04:42:30;1.60;59.50
4107;DHT22;21906;50.812;7.132;2023-02-28T04:45:07;1.50;59.50
4107;DHT22;21906;50.812;7.132;2023-02-28T04:47:36;1.40;59.50
4107;DHT22;21906;50.812;7.132;2023-02-28T04:50:02;1.40;59.30
4107;DHT22;21906;50.812;7.132;2023-02-28T04:52:32;1.40;59.20
4107;DHT22;21906;50.812;7.132;2023-02-28T04:54:58;1.10;59.10
4107;DHT22;21906;50.812;7.132;2023-02-28T04:57:23;1.10;59.30
4107;DHT22;21906;50.812;7.132;2023-02-28T04:59:49;1.20;59.00
4107;DHT22;21906;50.812;7.132;2023-02-28T05:02:15;1.40;58.80
4107;DHT22;21906;50.812;7.132;2023-02-28T05:04:41;1.40;58.30
4107;DHT22;21906;50.812;7.132;2023-02-28T05:07:06;1.40;58.20
4107;DHT22;21906;50.812;7.132;2023-02-28T05:09:32;1.40;58.10
4107;DHT22;21906;50.812;7.132;2023-02-28T05:12:00;1.50;57.90
4107;DHT22;21906;50.812;7.132;2023-02-28T05:14:26;1.40;57.90
4107;DHT22;21906;50.812;7.132;2023-02-28T05:16:52;1.40;58.10
4107;DHT22;21906;50.812;7.132;2023-02-28T05:19:17;1.40;57.60
4107;DHT22;21906;50.812;7.132;2023-02-28T05:21:53;1.60;57.60
4107;DHT22;21906;50.812;7.132;2023-02-28T05:24:19;1.40;57.80
4107;DHT22;21906;50.812;7.132;2023-02-28T05:26:49;1.40;57.80
4107;DHT22;21906;50.812;7.132;2023-02-28T05:29:16;1.40;57.80
4107;DHT22;21906;50.812;7.132;2023-02-28T05:31:41;1.40;58.00
4107;DHT22;21906;50.812;7.132;2023-02-28T05:34:07;1.60;57.70
4107;DHT22;21906;50.812;7.132;2023-02-28T05:36:33;1.60;57.30
4107;DHT22;21906;50.812;7.132;2023-02-28T05:38:58;1.60;57.20
4107;DHT22;21906;50.812;7.132;2023-02-28T05:41:24;1.60;57.10
4107;DHT22;21906;50.812;7.132;2023-02-28T05:43:51;1.70;57.10
4107;DHT22;21906;50.812;7.132;2023-02-28T05:46:17;1.60;57.10
4107;DHT22;21906;50.812;7.132;2023-02-28T05:48:45;1.70;57.00
4107;DHT22;21906;50.812;7.132;2023-02-28T05:51:11;1.80;56.70
4107;DHT22;21906;50.812;7.132;2023-02-28T05:53:36;1.80;56.80
4107;DHT22;21906;50.812;7.132;2023-02-28T05:56:03;1.70;56.90
4107;DHT22;21906;50.812;7.132;2023-02-28T05:58:28;1.80;56.80
4107;DHT22;21906;50.812;7.132;2023-02-28T06:00:59;1.80;56.60
4107;DHT22;21906;50.812;7.132;2023-02-28T06:03:26;1.80;56.70
4107;DHT22;21906;50.812;7.132;2023-02-28T06:05:52;1.90;56.60
4107;DHT22;21906;50.812;7.132;2023-02-28T06:08:17;1.80;56.60
4107;DHT22;21906;50.812;7.132;2023-02-28T06:10:44;1.80;56.70
4107;DHT22;21906;50.812;7.132;2023-02-28T06:13:10;1.80;56.80
4107;DHT22;21906;50.812;7.132;2023-02-28T06:15:37;1.80;56.80
4107;DHT22;21906;50.812;7.132;2023-02-28T06:18:04;1.80;56.90
4107;DHT22;21906;50.812;7.132;2023-02-28T06:20:29;1.70;57.00
4107;DHT22;21906;50.812;7.132;2023-02-28T06:22:56;1.80;57.00
4107;DHT22;21906;50.812;7.132;2023-02-28T06:25:24;1.70;56.90
4107;DHT22;21906;50.812;7.132;2023-02-28T06:27:50;1.70;57.10
4107;DHT22;21906;50.812;7.132;2023-02-28T06:30:18;1.60;57.10
4107;DHT22;21906;50.812;7.132;2023-02-28T06:32:49;1.60;57.40
4107;DHT22;21906;50.812;7.132;2023-02-28T06:35:14;1.60;57.60
4107;DHT22;21906;50.812;7.132;2023-02-28T06:37:40;1.60;57.50
4107;DHT22;21906;50.812;7.132;2023-02-28T06:40:13;1.60;57.70
4107;DHT22;21906;50.812;7.132;2023-02-28T06:42:44;1.60;57.70
4107;DHT22;21906;50.812;7.132;2023-02-28T06:45:11;1.60;57.80
4107;DHT22;21906;50.812;7.132;2023-02-28T06:47:38;1.50;58.00
4107;DHT22;21906;50.812;7.132;2023-02-28T06:50:06;1.60;58.10
4107;DHT22;21906;50.812;7.132;2023-02-28T06:52:33;1.50;58.30
4107;DHT22;21906;50.812;7.132;2023-02-28T06:55:01;1.50;58.30
4107;DHT22;21906;50.812;7.132;2023-02-28T06:57:32;1.50;58.30
4107;DHT22;21906;50.812;7.132;2023-02-28T06:59:59;1.60;58.20
4107;DHT22;21906;50.812;7.132;2023-02-28T07:02:26;1.60;57.80
4107;DHT22;21906;50.812;7.132;2023-02-28T07:04:52;1.70;57.50
4107;DHT22;21906;50.812;7.132;2023-02-28T07:07:18;1.70;57.30
4107;DHT22;21906;50.812;7.132;2023-02-28T07:09:44;1.70;57.00
4107;DHT22;21906;50.812;7.132;2023-02-28T07:12:09;1.70;57.00
4107;DHT22;21906;50.812;7.132;2023-02-28T07:14:36;1.80;56.50
4107;DHT22;21906;50.812;7.132;2023-02-28T07:17:03;1.70;56.40
4107;DHT22;21906;50.812;7.132;2023-02-28T07:19:29;1.80;56.20
4107;DHT22;21906;50.812;7.132;2023-02-28T07:21:55;1.80;56.40
4107;DHT22;21906;50.812;7.132;2023-02-28T07:24:21;1.90;56.30
4107;DHT22;21906;50.812;7.132;2023-02-28T07:26:51;2.00;56.10
4107;DHT22;21906;50.812;7.132;2023-02-28T07:29:17;2.10;56.50
4107;DHT22;21906;50.812;7.132;2023-02-28T07:31:42;2.10;56.90
4107;DHT22;21906;50.812;7.132;2023-02-28T07:34:08;2.20;56.90
4107;DHT22;21906;50.812;7.132;2023-02-28T07:36:34;2.30;56.80
4107;DHT22;21906;50.812;7.132;2023-02-28T07:39:00;2.30;56.40
4107;DHT22;21906;50.812;7.132;2023-02-28T07:41:29;2.30;56.30
4107;DHT22;21906;50.812;7.132;2023-02-28T07:43:58;2.30;56.10
4107;DHT22;21906;50.812;7.132;2023-02-28T07:46:25;2.30;55.90
4107;DHT22;21906;50.812;7.132;2023-02-28T07:48:51;2.40;55.90
4107;DHT22;21906;50.812;7.132;2023-02-28T07:51:18;2.30;54.30
4107;DHT22;21906;50.812;7.132;2023-02-28T07:53:44;2.20;53.90
4107;DHT22;21906;50.812;7.132;2023-02-28T07:56:10;2.10;53.40
4107;DHT22;21906;50.812;7.132;2023-02-28T07:58:37;2.10;53.60
4107;DHT22;21906;50.812;7.132;2023-02-28T08:01:10;2.20;53.00
4107;DHT22;21906;50.812;7.132;2023-02-28T08:03:41;2.30;51.80
4107;DHT22;21906;50.812;7.132;2023-02-28T08:06:15;2.40;52.40
4107;DHT22;21906;50.812;7.132;2023-02-28T08:08:41;2.50;51.80
4107;DHT22;21906;50.812;7.132;2023-02-28T08:11:07;2.60;51.60
4107;DHT22;21906;50.812;7.132;2023-02-28T08:13:33;2.70;50.80
4107;DHT22;21906;50.812;7.132;2023-02-28T08:16:01;2.70;50.60
4107;DHT22;21906;50.812;7.132;2023-02-28T08:18:27;2.70;50.30
4107;DHT22;21906;50.812;7.132;2023-02-28T08:20:52;2.80;50.20
4107;DHT22;21906;50.812;7.132;2023-02-28T08:23:18;2.90;49.20
4107;DHT22;21906;50.812;7.132;2023-02-28T08:25:44;3.00;49.70
4107;DHT22;21906;50.812;7.132;2023-02-28T08:28:10;2.90;49.20
4107;DHT22;21906;50.812;7.132;2023-02-28T08:30:35;3.10;48.90
4107;DHT22;21906;50.812;7.132;2023-02-28T08:33:02;3.10;48.40
4107;DHT22;21906;50.812;7.132;2023-02-28T08:35:30;3.20;48.30
4107;DHT22;21906;50.812;7.132;2023-02-28T08:37:56;3.20;47.70
4107;DHT22;21906;50.812;7.132;2023-02-28T08:40:21;3.40;48.00
4107;DHT22;21906;50.812;7.132;2023-02-28T08:42:48;3.30;47.40
4107;DHT22;21906;50.812;7.132;2023-02-28T08:45:16;3.20;47.40
4107;DHT22;21906;50.812;7.132;2023-02-28T08:47:42;3.20;46.50
4107;DHT22;21906;50.812;7.132;2023-02-28T08:50:11;3.30;46.90
4107;DHT22;21906;50.812;7.132;2023-02-28T08:52:36;3.40;46.70
4107;DHT22;21906;50.812;7.132;2023-02-28T08:55:07;3.40;47.20
4107;DHT22;21906;50.812;7.132;2023-02-28T08:57:32;3.50;46.50
4107;DHT22;21906;50.812;7.132;2023-02-28T08:59:58;3.60;45.80
4107;DHT22;21906;50.812;7.132;2023-02-28T09:02:24;3.80;45.60
4107;DHT22;21906;50.812;7.132;2023-02-28T09:04:52;3.90;45.20
4107;DHT22;21906;50.812;7.132;2023-02-28T09:07:18;4.10;45.30
4107;DHT22;21906;50.812;7.132;2023-02-28T09:09:44;4.20;44.80
4107;DHT22;21906;50.812;7.132;2023-02-28T09:12:23;4.20;44.10
4107;DHT22;21906;50.812;7.132;2023-02-28T09:14:49;4.30;44.30
4107;DHT22;21906;50.812;7.132;2023-02-28T09:17:15;4.30;44.20
4107;DHT22;21906;50.812;7.132;2023-02-28T09:19:41;4.40;43.50
4107;DHT22;21906;50.812;7.132;2023-02-28T09:22:08;4.40;42.70
4107;DHT22;21906;50.812;7.132;2023-02-28T09:24:36;4.30;43.50
4107;DHT22;21906;50.812;7.132;2023-02-28T09:27:05;4.30;42.60
4107;DHT22;21906;50.812;7.132;2023-02-28T09:29:33;4.40;43.30
4107;DHT22;21906;50.812;7.132;2023-02-28T09:32:00;4.50;42.90
4107;DHT22;21906;50.812;7.132;2023-02-28T09:34:27;4.40;43.00
4107;DHT22;21906;50.812;7.132;2023-02-28T09:36:53;4.50;43.30
4107;DHT22;21906;50.812;7.132;2023-02-28T09:39:23;4.60;44.00
4107;DHT22;21906;50.812;7.132;2023-02-28T09:41:53;4.50;43.60
4107;DHT22;21906;50.812;7.132;2023-02-28T09:46:48;4.80;43.40
4107;DHT22;21906;50.812;7.132;2023-02-28T09:49:22;4.80;42.70
4107;DHT22;21906;50.812;7.132;2023-02-28T09:52:07;4.90;43.10
4107;DHT22;21906;50.812;7.132;2023-02-28T09:54:36;5.00;43.00
4107;DHT22;21906;50.812;7.132;2023-02-28T10:05:04;5.40;42.10
4107;DHT22;21906;50.812;7.132;2023-02-28T10:08:02;5.50;41.10
4107;DHT22;21906;50.812;7.132;2023-02-28T10:10:44;5.60;41.70
4107;DHT22;21906;50.812;7.132;2023-02-28T10:16:37;5.50;40.30
4107;DHT22;21906;50.812;7.132;2023-02-28T10:19:23;5.50;40.00
4107;DHT22;21906;50.812;7.132;2023-02-28T10:24:50;5.40;39.20
4107;DHT22;21906;50.812;7.132;2023-02-28T10:27:24;5.50;39.70
4107;DHT22;21906;50.812;7.132;2023-02-28T10:29:55;5.70;40.60
4107;DHT22;21906;50.812;7.132;2023-02-28T10:32:24;5.90;40.40
4107;DHT22;21906;50.812;7.132;2023-02-28T10:35:09;5.90;38.90
4107;DHT22;21906;50.812;7.132;2023-02-28T10:37:47;6.00;39.00
4107;DHT22;21906;50.812;7.132;2023-02-28T10:43:01;5.70;38.50
4107;DHT22;21906;50.812;7.132;2023-02-28T10:45:35;5.40;37.90
4107;DHT22;21906;50.812;7.132;2023-02-28T10:56:03;6.00;39.90
4107;DHT22;21906;50.812;7.132;2023-02-28T10:58:58;6.30;38.20
4107;DHT22;21906;50.812;7.132;2023-02-28T11:04:34;6.40;39.30
4107;DHT22;21906;50.812;7.132;2023-02-28T11:07:22;6.50;40.40
4107;DHT22;21906;50.812;7.132;2023-02-28T11:09:52;6.60;38.00
4107;DHT22;21906;50.812;7.132;2023-02-28T11:12:37;6.50;37.50
4107;DHT22;21906;50.812;7.132;2023-02-28T11:15:26;6.70;38.50
4107;DHT22;21906;50.812;7.132;2023-02-28T11:18:00;6.60;37.80
4107;DHT22;21906;50.812;7.132;2023-02-28T11:20:29;6.70;37.40
4107;DHT22;21906;50.812;7.132;2023-02-28T11:22:56;6.80;38.60
4107;DHT22;21906;50.812;7.132;2023-02-28T11:25:52;6.90;38.30
4107;DHT22;21906;50.812;7.132;2023-02-28T11:28:33;7.30;37.20
4107;DHT22;21906;50.812;7.132;2023-02-28T11:31:16;7.20;37.30
4107;DHT22;21906;50.812;7.132;2023-02-28T11:33:53;7.20;38.10
4107;DHT22;21906;50.812;7.132;2023-02-28T11:36:24;7.20;37.80
4107;DHT22;21906;50.812;7.132;2023-02-28T11:38:55;7.40;36.90
4107;DHT22;21906;50.812;7.132;2023-02-28T11:46:49;7.60;35.80
4107;DHT22;21906;50.812;7.132;2023-02-28T12:08:57;8.30;36.10
4107;DHT22;21906;50.812;7.132;2023-02-28T12:20:32;8.00;36.10
4107;DHT22;21906;50.812;7.132;2023-02-28T12:32:12;8.40;36.00
4107;DHT22;21906;50.812;7.132;2023-02-28T12:34:46;8.70;39.40
4107;DHT22;21906;50.812;7.132;2023-02-28T12:37:22;9.10;42.30
4107;DHT22;21906;50.812;7.132;2023-02-28T12:39:56;9.50;46.00
4107;DHT22;21906;50.812;7.132;2023-02-28T12:42:29;9.80;36.60
4107;DHT22;21906;50.812;7.132;2023-02-28T12:45:08;9.80;38.90
4107;DHT22;21906;50.812;7.132;2023-02-28T12:47:35;10.10;40.00
4107;DHT22;21906;50.812;7.132;2023-02-28T12:50:11;10.30;38.00
4107;DHT22;21906;50.812;7.132;2023-02-28T12:55:14;10.40;35.50
4107;DHT22;21906;50.812;7.132;2023-02-28T12:58:20;10.40;35.80
4107;DHT22;21906;50.812;7.132;2023-02-28T13:06:52;10.60;34.70
4107;DHT22;21906;50.812;7.132;2023-02-28T13:09:21;10.30;34.60
4107;DHT22;21906;50.812;7.132;2023-02-28T13:11:52;10.40;37.40
4107;DHT22;21906;50.812;7.132;2023-02-28T13:17:00;11.10;38.00
4107;DHT22;21906;50.812;7.132;2023-02-28T13:19:29;11.40;36.80
4107;DHT22;21906;50.812;7.132;2023-02-28T13:21:57;11.40;33.70
4107;DHT22;21906;50.812;7.132;2023-02-28T13:24:48;11.40;35.60
4107;DHT22;21906;50.812;7.132;2023-02-28T13:29:47;11.00;33.40
4107;DHT22;21906;50.812;7.132;2023-02-28T13:39:56;11.20;33.30
4107;DHT22;21906;50.812;7.132;2023-02-28T13:42:23;11.20;32.10
4107;DHT22;21906;50.812;7.132;2023-02-28T13:47:42;11.10;33.80
4107;DHT22;21906;50.812;7.132;2023-02-28T13:56:30;11.30;32.30
4107;DHT22;21906;50.812;7.132;2023-02-28T13:59:21;11.20;32.00
4107;DHT22;21906;50.812;7.132;2023-02-28T14:05:20;11.10;33.00
4107;DHT22;21906;50.812;7.132;2023-02-28T14:07:57;11.40;33.10
4107;DHT22;21906;50.812;7.132;2023-02-28T14:10:32;12.00;32.10
4107;DHT22;21906;50.812;7.132;2023-02-28T14:13:12;11.90;32.20
4107;DHT22;21906;50.812;7.132;2023-02-28T14:15:48;12.00;32.30
4107;DHT22;21906;50.812;7.132;2023-02-28T14:18:37;12.00;30.70
4107;DHT22;21906;50.812;7.132;2023-02-28T14:23:43;11.40;31.00
4107;DHT22;21906;50.812;7.132;2023-02-28T14:29:44;11.60;32.00
4107;DHT22;21906;50.812;7.132;2023-02-28T14:32:58;11.90;32.20
4107;DHT22;21906;50.812;7.132;2023-02-28T14:37:51;11.60;32.00
4107;DHT22;21906;50.812;7.132;2023-02-28T14:43:04;11.80;31.60
4107;DHT22;21906;50.812;7.132;2023-02-28T14:45:34;11.50;31.00
4107;DHT22;21906;50.812;7.132;2023-02-28T14:48:02;11.60;32.50
4107;DHT22;21906;50.812;7.132;2023-02-28T14:50:36;12.10;32.10
4107;DHT22;21906;50.812;7.132;2023-02-28T14:53:03;12.50;31.10
4107;DHT22;21906;50.812;7.132;2023-02-28T14:55:35;12.50;30.00
4107;DHT22;21906;50.812;7.132;2023-02-28T14:58:06;12.50;30.00
4107;DHT22;21906;50.812;7.132;2023-02-28T15:00:51;12.90;29.40
4107;DHT22;21906;50.812;7.132;2023-02-28T15:03:37;13.10;29.20
4107;DHT22;21906;50.812;7.132;2023-02-28T15:08:30;12.90;29.10
4107;DHT22;21906;50.812;7.132;2023-02-28T15:11:17;13.10;29.20
4107;DHT22;21906;50.812;7.132;2023-02-28T15:13:53;13.00;28.90
4107;DHT22;21906;50.812;7.132;2023-02-28T15:16:22;13.00;29.20
4107;DHT22;21906;50.812;7.132;2023-02-28T15:18:55;13.10;29.10
4107;DHT22;21906;50.812;7.132;2023-02-28T15:21:25;12.70;29.00
4107;DHT22;21906;50.812;7.132;2023-02-28T15:26:37;13.50;28.80
4107;DHT22;21906;50.812;7.132;2023-02-28T15:29:19;13.90;27.90
4107;DHT22;21906;50.812;7.132;2023-02-28T15:32:23;14.10;27.00
4107;DHT22;21906;50.812;7.132;2023-02-28T15:34:50;13.70;28.20
4107;DHT22;21906;50.812;7.132;2023-02-28T15:40:29;13.00;27.40
4107;DHT22;21906;50.812;7.132;2023-02-28T15:43:18;13.20;28.60
4107;DHT22;21906;50.812;7.132;2023-02-28T15:46:02;13.00;29.30
4107;DHT22;21906;50.812;7.132;2023-02-28T15:50:57;12.90;28.50
4107;DHT22;21906;50.812;7.132;2023-02-28T15:53:32;12.40;28.40
4107;DHT22;21906;50.812;7.132;2023-02-28T15:56:04;12.30;29.40
4107;DHT22;21906;50.812;7.132;2023-02-28T15:58:30;12.50;29.20
4107;DHT22;21906;50.812;7.132;2023-02-28T16:01:04;12.30;29.00
4107;DHT22;21906;50.812;7.132;2023-02-28T16:03:48;11.90;29.80
4107;DHT22;21906;50.812;7.132;2023-02-28T16:06:37;11.90;29.70
4107;DHT22;21906;50.812;7.132;2023-02-28T16:09:06;11.90;30.10
4107;DHT22;21906;50.812;7.132;2023-02-28T16:11:37;12.00;29.70
4107;DHT22;21906;50.812;7.132;2023-02-28T16:14:04;11.70;30.30
4107;DHT22;21906;50.812;7.132;2023-02-28T16:16:31;11.50;30.30
4107;DHT22;21906;50.812;7.132;2023-02-28T16:18:57;11.60;29.90
4107;DHT22;21906;50.812;7.132;2023-02-28T16:21:25;11.50;30.60
4107;DHT22;21906;50.812;7.132;2023-02-28T16:23:51;11.60;30.80
4107;DHT22;21906;50.812;7.132;2023-02-28T16:26:25;11.50;30.50
4107;DHT22;21906;50.812;7.132;2023-02-28T16:28:53;11.00;30.60
4107;DHT22;21906;50.812;7.132;2023-02-28T16:31:19;10.50;31.50
4107;DHT22;21906;50.812;7.132;2023-02-28T16:33:45;10.10;31.70
4107;DHT22;21906;50.812;7.132;2023-02-28T16:36:20;9.90;32.70
4107;DHT22;21906;50.812;7.132;2023-02-28T16:38:46;9.60;32.90
4107;DHT22;21906;50.812;7.132;2023-02-28T16:41:14;9.40;33.50
4107;DHT22;21906;50.812;7.132;2023-02-28T16:43:45;9.30;33.90
4107;DHT22;21906;50.812;7.132;2023-02-28T16:46:12;9.20;34.00
4107;DHT22;21906;50.812;7.132;2023-02-28T16:48:39;9.00;34.20
4107;DHT22;21906;50.812;7.132;2023-02-28T16:51:08;8.80;34.20
4107;DHT22;21906;50.812;7.132;2023-02-28T16:53:34;8.70;34.70
4107;DHT22;21906;50.812;7.132;2023-02-28T16:56:00;8.60;35.00
4107;DHT22;21906;50.812;7.132;2023-02-28T16:58:27;8.70;35.10
4107;DHT22;21906;50.812;7.132;2023-02-28T17:00:53;8.60;35.00
4107;DHT22;21906;50.812;7.132;2023-02-28T17:03:25;8.50;35.20
4107;DHT22;21906;50.812;7.132;2023-02-28T17:05:51;8.20;35.50
4107;DHT22;21906;50.812;7.132;2023-02-28T17:08:17;8.10;35.90
4107;DHT22;21906;50.812;7.132;2023-02-28T17:10:43;8.10;36.00
4107;DHT22;21906;50.812;7.132;2023-02-28T17:13:09;8.10;36.00
4107;DHT22;21906;50.812;7.132;2023-02-28T17:15:36;8.10;36.20
4107;DHT22;21906;50.812;7.132;2023-02-28T17:18:02;8.00;36.70
4107;DHT22;21906;50.812;7.132;2023-02-28T17:20:28;7.90;36.90
4107;DHT22;21906;50.812;7.132;2023-02-28T17:22:54;7.80;37.30
4107;DHT22;21906;50.812;7.132;2023-02-28T17:25:22;7.80;37.40
4107;DHT22;21906;50.812;7.132;2023-02-28T17:27:49;7.70;37.30
4107;DHT22;21906;50.812;7.132;2023-02-28T17:30:25;7.60;37.30
4107;DHT22;21906;50.812;7.132;2023-02-28T17:32:53;7.60;37.40
4107;DHT22;21906;50.812;7.132;2023-02-28T17:35:19;7.60;37.70
4107;DHT22;21906;50.812;7.132;2023-02-28T17:37:45;7.50;37.50
4107;DHT22;21906;50.812;7.132;2023-02-28T17:40:14;7.50;37.90
4107;DHT22;21906;50.812;7.132;2023-02-28T17:42:40;7.40;38.60
4107;DHT22;21906;50.812;7.132;2023-02-28T17:45:06;7.40;38.40
4107;DHT22;21906;50.812;7.132;2023-02-28T17:47:32;7.30;38.70
4107;DHT22;21906;50.812;7.132;2023-02-28T17:49:57;7.20;38.70
4107;DHT22;21906;50.812;7.132;2023-02-28T17:52:23;7.20;38.90
4107;DHT22;21906;50.812;7.132;2023-02-28T17:54:49;7.20;39.00
4107;DHT22;21906;50.812;7.132;2023-02-28T17:57:15;7.10;39.20
4107;DHT22;21906;50.812;7.132;2023-02-28T17:59:42;7.00;39.50
4107;DHT22;21906;50.812;7.132;2023-02-28T18:02:10;6.90;40.00
4107;DHT22;21906;50.812;7.132;2023-02-28T18:04:37;6.90;40.20
4107;DHT22;21906;50.812;7.132;2023-02-28T18:07:02;6.90;40.50
4107;DHT22;21906;50.812;7.132;2023-02-28T18:09:29;6.80;40.60
4107;DHT22;21906;50.812;7.132;2023-02-28T18:11:55;6.70;40.80
4107;DHT22;21906;50.812;7.132;2023-02-28T18:14:23;6.60;40.90
4107;DHT22;21906;50.812;7.132;2023-02-28T18:16:51;6.50;41.30
4107;DHT22;21906;50.812;7.132;2023-02-28T18:19:17;6.40;41.90
4107;DHT22;21906;50.812;7.132;2023-02-28T18:21:45;6.30;42.40
4107;DHT22;21906;50.812;7.132;2023-02-28T18:24:11;6.20;43.00
4107;DHT22;21906;50.812;7.132;2023-02-28T18:26:38;6.20;42.90
4107;DHT22;21906;50.812;7.132;2023-02-28T18:29:05;6.10;42.80
4107;DHT22;21906;50.812;7.132;2023-02-28T18:31:31;6.00;42.70
4107;DHT22;21906;50.812;7.132;2023-02-28T18:33:58;5.90;43.00
4107;DHT22;21906;50.812;7.132;2023-02-28T18:36:24;5.90;42.80
4107;DHT22;21906;50.812;7.132;2023-02-28T18:38:51;5.80;43.00
4107;DHT22;21906;50.812;7.132;2023-02-28T18:41:18;5.70;43.30
4107;DHT22;21906;50.812;7.132;2023-02-28T18:43:48;5.70;43.60
4107;DHT22;21906;50.812;7.132;2023-02-28T18:46:15;5.60;43.90
4107;DHT22;21906;50.812;7.132;2023-02-28T18:48:42;5.60;44.20
4107;DHT22;21906;50.812;7.132;2023-02-28T18:51:15;5.50;44.30
4107;DHT22;21906;50.812;7.132;2023-02-28T18:53:42;5.40;44.80
4107;DHT22;21906;50.812;7.132;2023-02-28T18:56:10;5.40;45.00
4107;DHT22;21906;50.812;7.132;2023-02-28T18:58:39;5.40;45.10
4107;DHT22;21906;50.812;7.132;2023-02-28T19:03:46;5.20;45.50
4107;DHT22;21906;50.812;7.132;2023-02-28T19:06:12;5.20;45.80
4107;DHT22;21906;50.812;7.132;2023-02-28T19:08:39;5.10;46.00
4107;DHT22;21906;50.812;7.132;2023-02-28T19:11:13;5.10;46.50
4107;DHT22;21906;50.812;7.132;2023-02-28T19:13:39;5.00;46.40
4107;DHT22;21906;50.812;7.132;2023-02-28T19:16:09;4.90;46.30